Station Historical Data
Daily Summary for November 29, 2011 Units:  English    Metric   Both
« Previous Day
Next Day »
Daily Weekly Monthly Yearly Custom
  High: Low: Average:
Temperature: 36.5 °F 32.5 °F 34.2 °F
Dew Point: 35.0 °F 31.6 °F 33.3 °F
Humidity: 97% 92% 96%
Wind Speed: 14.0mph 1.0mph 5.7mph
Wind Gust: 20.0mph - -
Wind- - WSW
Pressure: 30.10 in 29.75 in -
Precipitation: 0.04 in    
Historical Graphs
 
 
Tabular Data for November 29, 2011
Time Temperature Dew Point Pressure Wind Wind Speed Wind Gust Humidity Rainfall Rate (Hourly) Conditions
00:00 33.5 °F 32.7 °F 29.78 in SW 8.0 mph 11.0 mph 97% 0.00 in
00:01 33.5 °F 32.7 °F 29.78 in SW 5.0 mph 10.0 mph 97% 0.00 in
00:06 33.5 °F 32.7 °F 29.77 in WSW 7.0 mph 10.0 mph 97% 0.00 in
00:11 33.5 °F 32.7 °F 29.77 in SW 8.0 mph 10.0 mph 97% 0.00 in
00:16 33.5 °F 32.7 °F 29.78 in WSW 5.0 mph 9.0 mph 97% 0.00 in
00:21 33.3 °F 32.5 °F 29.77 in SW 9.0 mph 12.0 mph 97% 0.00 in
00:26 33.2 °F 32.4 °F 29.77 in WSW 6.0 mph 8.0 mph 97% 0.00 in
00:31 33.1 °F 32.3 °F 29.77 in SSW 5.0 mph 9.0 mph 97% 0.00 in
00:37 33.0 °F 32.2 °F 29.77 in SW 5.0 mph 9.0 mph 97% 0.00 in
00:42 32.9 °F 32.1 °F 29.77 in SW 6.0 mph 8.0 mph 97% 0.00 in
00:47 32.9 °F 32.1 °F 29.77 in SW 6.0 mph 8.0 mph 97% 0.00 in
00:52 32.9 °F 32.1 °F 29.77 in WSW 5.0 mph 8.0 mph 97% 0.00 in
00:57 32.9 °F 32.1 °F 29.77 in WSW 5.0 mph 9.0 mph 97% 0.00 in
01:02 32.9 °F 32.1 °F 29.77 in SW 8.0 mph 11.0 mph 97% 0.00 in
01:07 32.9 °F 32.1 °F 29.77 in SSW 4.0 mph 9.0 mph 97% 0.00 in
01:12 32.9 °F 32.1 °F 29.77 in SW 7.0 mph 9.0 mph 97% 0.00 in
01:17 32.8 °F 32.0 °F 29.76 in SW 8.0 mph 10.0 mph 97% 0.00 in
01:22 32.8 °F 32.0 °F 29.76 in WSW 7.0 mph 10.0 mph 97% 0.00 in
01:27 32.8 °F 32.0 °F 29.76 in SSW 8.0 mph 9.0 mph 97% 0.00 in
01:32 32.8 °F 32.0 °F 29.76 in SSW 7.0 mph 9.0 mph 97% 0.00 in
01:37 32.8 °F 32.0 °F 29.76 in SW 6.0 mph 8.0 mph 97% 0.00 in
01:42 32.7 °F 31.9 °F 29.76 in SW 6.0 mph 8.0 mph 97% 0.00 in
01:47 32.7 °F 31.9 °F 29.76 in SW 9.0 mph 11.0 mph 97% 0.00 in
01:52 32.7 °F 31.9 °F 29.76 in SSW 4.0 mph 10.0 mph 97% 0.00 in
01:57 32.7 °F 31.9 °F 29.76 in SW 7.0 mph 11.0 mph 97% 0.00 in
02:02 32.7 °F 31.9 °F 29.76 in SW 6.0 mph 8.0 mph 97% 0.00 in
02:07 32.7 °F 31.9 °F 29.75 in South 3.0 mph 7.0 mph 97% 0.00 in
02:12 32.7 °F 31.9 °F 29.76 in SW 6.0 mph 8.0 mph 97% 0.00 in
02:17 32.7 °F 31.9 °F 29.76 in SW 4.0 mph 8.0 mph 97% 0.00 in
02:22 32.7 °F 31.9 °F 29.76 in SW 4.0 mph 7.0 mph 97% 0.00 in
02:27 32.7 °F 31.9 °F 29.76 in SW 5.0 mph 9.0 mph 97% 0.00 in
02:32 32.7 °F 31.9 °F 29.76 in SW 5.0 mph 7.0 mph 97% 0.00 in
02:37 32.7 °F 31.9 °F 29.76 in SSW 3.0 mph 6.0 mph 97% 0.00 in
02:42 32.7 °F 31.9 °F 29.76 in SSW 5.0 mph 7.0 mph 97% 0.00 in
02:47 32.7 °F 31.9 °F 29.76 in SSW 2.0 mph 9.0 mph 97% 0.00 in
02:52 32.7 °F 31.9 °F 29.76 in SSW 4.0 mph 7.0 mph 97% 0.00 in
02:57 32.7 °F 31.9 °F 29.76 in SSE 4.0 mph 9.0 mph 97% 0.00 in
03:02 32.7 °F 31.9 °F 29.76 in SW 4.0 mph 11.0 mph 97% 0.00 in
03:07 32.7 °F 31.9 °F 29.76 in SW 6.0 mph 6.0 mph 97% 0.00 in
03:12 32.7 °F 31.9 °F 29.76 in South 7.0 mph 7.0 mph 97% 0.00 in
03:17 32.8 °F 32.0 °F 29.76 in SW 7.0 mph 9.0 mph 97% 0.00 in
03:22 32.8 °F 32.0 °F 29.76 in SW 4.0 mph 8.0 mph 97% 0.00 in
03:27 32.8 °F 32.0 °F 29.76 in SSW 3.0 mph 11.0 mph 97% 0.00 in
03:32 32.8 °F 32.0 °F 29.76 in SW 5.0 mph 7.0 mph 97% 0.00 in
03:37 32.8 °F 32.0 °F 29.76 in SSW 6.0 mph 10.0 mph 97% 0.00 in
03:42 32.7 °F 31.9 °F 29.76 in South 5.0 mph 7.0 mph 97% 0.00 in
03:47 32.7 °F 31.9 °F 29.76 in WSW 5.0 mph 6.0 mph 97% 0.00 in
03:52 32.6 °F 31.8 °F 29.76 in SSW 5.0 mph 7.0 mph 97% 0.00 in
03:57 32.6 °F 31.8 °F 29.76 in SW 3.0 mph 5.0 mph 97% 0.00 in
04:03 32.6 °F 31.8 °F 29.76 in SW 5.0 mph 9.0 mph 97% 0.00 in
04:08 32.6 °F 31.8 °F 29.76 in SW 4.0 mph 8.0 mph 97% 0.00 in
04:13 32.6 °F 31.8 °F 29.76 in WSW 4.0 mph 7.0 mph 97% 0.00 in
04:18 32.6 °F 31.8 °F 29.76 in WSW 4.0 mph 11.0 mph 97% 0.00 in
04:23 32.6 °F 31.8 °F 29.75 in SW 7.0 mph 11.0 mph 97% 0.00 in
04:28 32.6 °F 31.8 °F 29.75 in SW 6.0 mph 6.0 mph 97% 0.00 in
04:33 32.6 °F 31.8 °F 29.75 in SW 7.0 mph 7.0 mph 97% 0.00 in
04:38 32.6 °F 31.8 °F 29.75 in SSW 3.0 mph 7.0 mph 97% 0.00 in
04:43 32.6 °F 31.8 °F 29.75 in SW 4.0 mph 8.0 mph 97% 0.00 in
04:48 32.5 °F 31.7 °F 29.75 in SW 2.0 mph 12.0 mph 97% 0.00 in
04:53 32.6 °F 31.8 °F 29.75 in WSW 4.0 mph 8.0 mph 97% 0.00 in
04:58 32.6 °F 31.8 °F 29.76 in SSW 3.0 mph 6.0 mph 97% 0.00 in
05:03 32.6 °F 31.8 °F 29.75 in SW 6.0 mph 8.0 mph 97% 0.00 in
05:08 32.6 °F 31.8 °F 29.75 in SSW 4.0 mph 6.0 mph 97% 0.00 in
05:13 32.7 °F 31.7 °F 29.75 in SW 3.0 mph 6.0 mph 96% 0.00 in
05:18 32.7 °F 31.9 °F 29.75 in SW 8.0 mph 12.0 mph 97% 0.00 in
05:23 32.7 °F 31.7 °F 29.75 in SSW 4.0 mph 11.0 mph 96% 0.00 in
05:28 32.7 °F 31.7 °F 29.75 in SW 3.0 mph 9.0 mph 96% 0.00 in
05:33 32.7 °F 31.7 °F 29.76 in SW 5.0 mph 9.0 mph 96% 0.00 in
05:38 32.6 °F 31.6 °F 29.75 in SSW 3.0 mph 8.0 mph 96% 0.00 in
05:43 32.6 °F 31.6 °F 29.76 in SSW 6.0 mph 7.0 mph 96% 0.00 in
05:48 32.6 °F 31.8 °F 29.75 in SSW 4.0 mph 9.0 mph 97% 0.00 in
05:53 32.6 °F 31.8 °F 29.76 in SSE 3.0 mph 8.0 mph 97% 0.00 in
05:58 32.6 °F 31.8 °F 29.76 in SSW 4.0 mph 7.0 mph 97% 0.00 in
06:03 32.6 °F 31.8 °F 29.76 in SW 5.0 mph 7.0 mph 97% 0.00 in
06:08 32.6 °F 31.8 °F 29.76 in SSW 5.0 mph 6.0 mph 97% 0.00 in
06:13 32.6 °F 31.8 °F 29.76 in South 2.0 mph 6.0 mph 97% 0.00 in
06:18 32.7 °F 31.9 °F 29.76 in SSW 5.0 mph 5.0 mph 97% 0.00 in
06:23 32.7 °F 31.9 °F 29.76 in SSW 4.0 mph 5.0 mph 97% 0.00 in
06:28 32.7 °F 31.9 °F 29.76 in SW 5.0 mph 6.0 mph 97% 0.00 in
06:34 32.7 °F 31.9 °F 29.76 in South 4.0 mph 8.0 mph 97% 0.00 in
06:39 32.7 °F 31.9 °F 29.76 in SW 9.0 mph 9.0 mph 97% 0.00 in
06:44 32.7 °F 31.9 °F 29.77 in WSW 4.0 mph 9.0 mph 97% 0.00 in
06:48 32.8 °F 31.8 °F 29.76 in SW 8.0 mph 8.0 mph 96% 0.00 in
06:54 32.8 °F 31.8 °F 29.77 in SW 8.0 mph 8.0 mph 96% 0.00 in
06:59 32.8 °F 31.8 °F 29.77 in SW 8.0 mph 8.0 mph 96% 0.00 in
07:04 32.8 °F 31.8 °F 29.77 in SW 8.0 mph 9.0 mph 96% 0.00 in
07:09 32.8 °F 31.8 °F 29.77 in SW 5.0 mph 7.0 mph 96% 0.00 in
07:14 32.8 °F 31.8 °F 29.77 in SW 7.0 mph 8.0 mph 96% 0.00 in
07:19 32.8 °F 31.8 °F 29.76 in SSW 5.0 mph 7.0 mph 96% 0.00 in
07:24 32.7 °F 31.7 °F 29.77 in SW 3.0 mph 8.0 mph 96% 0.00 in
07:29 32.7 °F 31.7 °F 29.77 in SSW 3.0 mph 6.0 mph 96% 0.00 in
07:34 32.7 °F 31.7 °F 29.77 in South 3.0 mph 6.0 mph 96% 0.00 in
07:39 32.7 °F 31.9 °F 29.77 in SW 6.0 mph 7.0 mph 97% 0.00 in
07:44 32.7 °F 31.9 °F 29.78 in SSW 3.0 mph 6.0 mph 97% 0.00 in
07:49 32.7 °F 31.9 °F 29.78 in SSW 2.0 mph 7.0 mph 97% 0.00 in
07:54 32.7 °F 31.9 °F 29.78 in SSW 5.0 mph 8.0 mph 97% 0.00 in
07:59 32.7 °F 31.9 °F 29.78 in South 5.0 mph 11.0 mph 97% 0.00 in
08:04 32.7 °F 31.9 °F 29.78 in South 4.0 mph 7.0 mph 97% 0.00 in
08:09 32.7 °F 31.9 °F 29.79 in SSW 3.0 mph 7.0 mph 97% 0.00 in
08:14 32.7 °F 31.9 °F 29.79 in SW 5.0 mph 6.0 mph 97% 0.00 in
08:19 32.7 °F 31.9 °F 29.79 in SSE 3.0 mph 8.0 mph 97% 0.00 in
08:24 32.8 °F 32.0 °F 29.79 in SSW 6.0 mph 6.0 mph 97% 0.00 in
08:29 32.7 °F 31.9 °F 29.79 in SW 5.0 mph 7.0 mph 97% 0.00 in
08:34 32.8 °F 32.0 °F 29.79 in SW 7.0 mph 7.0 mph 97% 0.00 in
08:39 32.9 °F 32.1 °F 29.80 in SW 4.0 mph 7.0 mph 97% 0.00 in
08:44 32.9 °F 32.1 °F 29.80 in South 2.0 mph 8.0 mph 97% 0.00 in
08:49 33.0 °F 32.2 °F 29.80 in SSW 5.0 mph 8.0 mph 97% 0.00 in
08:54 33.0 °F 32.2 °F 29.80 in SSW 5.0 mph 9.0 mph 97% 0.00 in
08:59 33.1 °F 32.3 °F 29.80 in SSW 9.0 mph 9.0 mph 97% 0.00 in
09:04 33.2 °F 32.4 °F 29.80 in SW 5.0 mph 8.0 mph 97% 0.00 in
09:09 33.2 °F 32.4 °F 29.80 in SSW 3.0 mph 10.0 mph 97% 0.00 in
09:14 33.3 °F 32.5 °F 29.80 in SSW 3.0 mph 8.0 mph 97% 0.00 in
09:19 33.3 °F 32.5 °F 29.81 in SW 7.0 mph 10.0 mph 97% 0.00 in
09:24 33.3 °F 32.3 °F 29.81 in South 7.0 mph 11.0 mph 96% 0.00 in
09:29 33.4 °F 32.4 °F 29.81 in SW 11.0 mph 11.0 mph 96% 0.00 in
09:34 33.5 °F 32.5 °F 29.81 in WSW 7.0 mph 8.0 mph 96% 0.00 in
09:39 33.5 °F 32.5 °F 29.82 in SW 9.0 mph 11.0 mph 96% 0.00 in
09:44 33.6 °F 32.6 °F 29.82 in SW 6.0 mph 9.0 mph 96% 0.00 in
09:49 33.7 °F 32.7 °F 29.82 in SW 8.0 mph 8.0 mph 96% 0.00 in
09:54 33.7 °F 32.7 °F 29.83 in WSW 6.0 mph 10.0 mph 96% 0.00 in
09:59 33.8 °F 32.8 °F 29.82 in West 7.0 mph 9.0 mph 96% 0.00 in
10:04 33.9 °F 32.9 °F 29.83 in SW 4.0 mph 9.0 mph 96% 0.00 in
10:09 34.0 °F 33.0 °F 29.83 in SW 5.0 mph 8.0 mph 96% 0.00 in
10:14 34.0 °F 33.0 °F 29.83 in SW 5.0 mph 9.0 mph 96% 0.00 in
10:19 34.1 °F 33.1 °F 29.83 in SW 3.0 mph 11.0 mph 96% 0.00 in
10:24 34.2 °F 33.2 °F 29.83 in SW 6.0 mph 8.0 mph 96% 0.00 in
10:29 34.2 °F 33.2 °F 29.84 in SW 9.0 mph 10.0 mph 96% 0.00 in
10:34 34.3 °F 33.3 °F 29.84 in WSW 9.0 mph 10.0 mph 96% 0.00 in
10:39 34.3 °F 33.3 °F 29.84 in WSW 8.0 mph 12.0 mph 96% 0.00 in
10:44 34.4 °F 33.4 °F 29.84 in WSW 6.0 mph 14.0 mph 96% 0.00 in
10:49 34.5 °F 33.5 °F 29.84 in SSW 8.0 mph 10.0 mph 96% 0.00 in
10:55 34.6 °F 33.6 °F 29.84 in SSW 5.0 mph 13.0 mph 96% 0.00 in
11:00 34.8 °F 33.8 °F 29.85 in SW 5.0 mph 10.0 mph 96% 0.00 in
11:05 35.0 °F 34.0 °F 29.85 in WSW 11.0 mph 11.0 mph 96% 0.00 in
11:10 35.1 °F 34.1 °F 29.85 in WSW 8.0 mph 10.0 mph 96% 0.00 in
11:15 35.3 °F 34.0 °F 29.85 in SW 10.0 mph 12.0 mph 95% 0.00 in
11:20 35.4 °F 34.1 °F 29.85 in WSW 9.0 mph 11.0 mph 95% 0.00 in
11:25 35.5 °F 34.0 °F 29.85 in WSW 10.0 mph 13.0 mph 94% 0.00 in
11:30 35.5 °F 34.2 °F 29.85 in WNW 9.0 mph 11.0 mph 95% 0.00 in
11:35 35.3 °F 33.8 °F 29.85 in SW 9.0 mph 12.0 mph 94% 0.00 in
11:40 35.3 °F 33.5 °F 29.85 in WSW 10.0 mph 12.0 mph 93% 0.00 in
11:45 35.3 °F 33.5 °F 29.85 in WSW 6.0 mph 13.0 mph 93% 0.00 in
11:50 35.3 °F 33.8 °F 29.85 in WSW 8.0 mph 11.0 mph 94% 0.00 in
11:55 35.2 °F 33.7 °F 29.85 in West 7.0 mph 15.0 mph 94% 0.00 in
12:00 35.1 °F 33.8 °F 29.85 in West 6.0 mph 12.0 mph 95% 0.00 in
12:05 35.2 °F 33.9 °F 29.85 in SW 7.0 mph 9.0 mph 95% 0.00 in
12:10 35.2 °F 34.2 °F 29.85 in SW 8.0 mph 11.0 mph 96% 0.00 in
12:15 35.1 °F 34.1 °F 29.86 in West 8.0 mph 8.0 mph 96% 0.00 in
12:20 35.0 °F 33.7 °F 29.86 in SW 12.0 mph 12.0 mph 95% 0.00 in
12:25 34.9 °F 33.6 °F 29.86 in West 6.0 mph 9.0 mph 95% 0.00 in
12:30 35.0 °F 34.0 °F 29.85 in WNW 3.0 mph 9.0 mph 96% 0.00 in
12:35 35.1 °F 34.1 °F 29.85 in WSW 9.0 mph 11.0 mph 96% 0.00 in
12:40 35.0 °F 34.0 °F 29.85 in West 11.0 mph 14.0 mph 96% 0.00 in
12:45 35.2 °F 34.2 °F 29.85 in SW 5.0 mph 12.0 mph 96% 0.00 in
12:50 35.2 °F 34.2 °F 29.85 in West 7.0 mph 8.0 mph 96% 0.00 in
12:55 35.2 °F 34.2 °F 29.86 in West 7.0 mph 9.0 mph 96% 0.00 in
13:00 35.3 °F 34.0 °F 29.86 in WSW 7.0 mph 10.0 mph 95% 0.00 in
13:05 35.3 °F 34.0 °F 29.87 in West 5.0 mph 11.0 mph 95% 0.00 in
13:10 35.3 °F 34.0 °F 29.87 in West 7.0 mph 8.0 mph 95% 0.00 in
13:15 35.2 °F 33.9 °F 29.87 in SW 9.0 mph 11.0 mph 95% 0.00 in
13:20 35.0 °F 33.7 °F 29.87 in WSW 7.0 mph 11.0 mph 95% 0.00 in
13:25 35.0 °F 34.0 °F 29.87 in West 5.0 mph 12.0 mph 96% 0.00 in
13:30 34.9 °F 33.6 °F 29.87 in WNW 9.0 mph 11.0 mph 95% 0.00 in
13:35 35.0 °F 34.0 °F 29.88 in WNW 8.0 mph 12.0 mph 96% 0.00 in
13:40 34.9 °F 33.9 °F 29.88 in West 9.0 mph 12.0 mph 96% 0.00 in
13:46 35.0 °F 34.0 °F 29.88 in SW 11.0 mph 11.0 mph 96% 0.00 in
13:51 34.9 °F 33.9 °F 29.88 in West 4.0 mph 13.0 mph 96% 0.00 in
13:56 34.8 °F 33.5 °F 29.88 in WNW 4.0 mph 11.0 mph 95% 0.00 in
14:01 34.8 °F 33.8 °F 29.88 in WSW 4.0 mph 10.0 mph 96% 0.00 in
14:06 34.9 °F 33.9 °F 29.89 in WNW 8.0 mph 11.0 mph 96% 0.00 in
14:11 34.9 °F 33.9 °F 29.89 in WNW 5.0 mph 11.0 mph 96% 0.00 in
14:16 34.8 °F 33.8 °F 29.88 in West 4.0 mph 11.0 mph 96% 0.00 in
14:21 34.8 °F 33.8 °F 29.88 in West 7.0 mph 13.0 mph 96% 0.00 in
14:26 34.9 °F 33.9 °F 29.88 in WNW 5.0 mph 11.0 mph 96% 0.00 in
14:31 35.1 °F 34.1 °F 29.88 in West 5.0 mph 8.0 mph 96% 0.00 in
14:36 35.3 °F 34.3 °F 29.88 in West 5.0 mph 10.0 mph 96% 0.00 in
14:41 35.3 °F 34.0 °F 29.89 in WSW 6.0 mph 8.0 mph 95% 0.00 in
14:46 35.4 °F 34.1 °F 29.89 in West 4.0 mph 8.0 mph 95% 0.00 in
14:51 35.5 °F 34.2 °F 29.90 in WNW 5.0 mph 11.0 mph 95% 0.00 in
14:56 35.6 °F 34.3 °F 29.90 in West 3.0 mph 10.0 mph 95% 0.00 in
15:01 35.9 °F 34.6 °F 29.89 in SW 6.0 mph 7.0 mph 95% 0.00 in
15:06 36.0 °F 34.7 °F 29.90 in WNW 4.0 mph 9.0 mph 95% 0.00 in
15:11 36.1 °F 34.5 °F 29.90 in West 8.0 mph 10.0 mph 94% 0.00 in
15:16 36.2 °F 34.6 °F 29.90 in WNW 9.0 mph 9.0 mph 94% 0.00 in
15:21 36.3 °F 34.5 °F 29.90 in WSW 7.0 mph 11.0 mph 93% 0.00 in
15:26 36.4 °F 34.8 °F 29.91 in WNW 5.0 mph 14.0 mph 94% 0.00 in
15:31 36.5 °F 34.7 °F 29.91 in West 4.0 mph 11.0 mph 93% 0.00 in
15:36 36.5 °F 34.7 °F 29.91 in WNW 7.0 mph 8.0 mph 93% 0.00 in
15:41 36.5 °F 34.7 °F 29.91 in WNW 6.0 mph 12.0 mph 93% 0.00 in
15:46 36.5 °F 34.4 °F 29.92 in WNW 7.0 mph 20.0 mph 92% 0.00 in
15:51 36.3 °F 34.2 °F 29.92 in West 14.0 mph 15.0 mph 92% 0.00 in
15:56 36.2 °F 34.1 °F 29.92 in WNW 11.0 mph 13.0 mph 92% 0.00 in
16:01 36.1 °F 34.0 °F 29.92 in West 8.0 mph 12.0 mph 92% 0.00 in
16:06 36.1 °F 34.3 °F 29.92 in WSW 10.0 mph 11.0 mph 93% 0.00 in
16:11 36.1 °F 34.3 °F 29.93 in WNW 5.0 mph 12.0 mph 93% 0.00 in
16:16 36.1 °F 34.3 °F 29.94 in West 7.0 mph 9.0 mph 93% 0.00 in
16:21 36.0 °F 34.4 °F 29.94 in West 5.0 mph 10.0 mph 94% 0.00 in
16:26 36.0 °F 34.4 °F 29.94 in West 6.0 mph 8.0 mph 94% 0.00 in
16:31 35.9 °F 34.6 °F 29.94 in WSW 8.0 mph 11.0 mph 95% 0.00 in
16:36 35.9 °F 34.3 °F 29.94 in West 5.0 mph 12.0 mph 94% 0.00 in
16:41 35.9 °F 34.3 °F 29.95 in West 7.0 mph 11.0 mph 94% 0.00 in
16:46 35.8 °F 34.2 °F 29.96 in West 9.0 mph 11.0 mph 94% 0.00 in
16:51 35.8 °F 34.2 °F 29.96 in WNW 4.0 mph 16.0 mph 94% 0.00 in
16:56 35.8 °F 34.2 °F 29.96 in WSW 12.0 mph 12.0 mph 94% 0.00 in
17:01 35.8 °F 34.2 °F 29.96 in West 8.0 mph 9.0 mph 94% 0.00 in
17:06 35.7 °F 34.4 °F 29.97 in West 7.0 mph 8.0 mph 95% 0.00 in
17:11 35.7 °F 34.4 °F 29.97 in West 7.0 mph 12.0 mph 95% 0.00 in
17:16 35.6 °F 34.3 °F 29.97 in WNW 7.0 mph 10.0 mph 95% 0.00 in
17:21 35.6 °F 34.3 °F 29.97 in WNW 10.0 mph 13.0 mph 95% 0.00 in
17:26 35.5 °F 34.2 °F 29.97 in WSW 5.0 mph 13.0 mph 95% 0.00 in
17:31 35.4 °F 34.1 °F 29.98 in WNW 5.0 mph 15.0 mph 95% 0.00 in
17:36 35.3 °F 34.0 °F 29.98 in NW 4.0 mph 10.0 mph 95% 0.00 in
17:41 35.3 °F 34.0 °F 29.98 in WNW 9.0 mph 13.0 mph 95% 0.00 in
17:46 35.2 °F 34.2 °F 29.98 in WNW 4.0 mph 9.0 mph 96% 0.00 in
17:51 35.2 °F 34.2 °F 29.99 in WNW 10.0 mph 10.0 mph 96% 0.00 in
17:56 35.1 °F 34.1 °F 29.99 in West 5.0 mph 8.0 mph 96% 0.00 in
18:01 35.1 °F 34.1 °F 30.00 in West 6.0 mph 10.0 mph 96% 0.00 in
18:06 35.1 °F 34.1 °F 30.00 in WNW 9.0 mph 9.0 mph 96% 0.00 in
18:11 35.0 °F 34.0 °F 30.00 in WNW 4.0 mph 7.0 mph 96% 0.00 in
18:16 35.0 °F 34.2 °F 30.00 in WSW 3.0 mph 8.0 mph 97% 0.00 in
18:21 34.9 °F 33.9 °F 30.01 in WNW 5.0 mph 11.0 mph 96% 0.00 in
18:26 34.9 °F 33.9 °F 30.01 in WNW 3.0 mph 12.0 mph 96% 0.00 in
18:32 34.9 °F 34.1 °F 30.01 in WNW 6.0 mph 11.0 mph 97% 0.00 in
18:37 34.8 °F 34.0 °F 30.02 in WNW 5.0 mph 11.0 mph 97% 0.00 in
18:42 34.8 °F 34.0 °F 30.02 in West 4.0 mph 8.0 mph 97% 0.00 in
18:47 34.8 °F 34.0 °F 30.03 in West 9.0 mph 14.0 mph 97% 0.00 in
18:52 34.7 °F 33.9 °F 30.03 in West 7.0 mph 13.0 mph 97% 0.00 in
18:57 34.7 °F 33.9 °F 30.03 in West 5.0 mph 9.0 mph 97% 0.00 in
19:02 34.7 °F 33.9 °F 30.03 in WNW 6.0 mph 13.0 mph 97% 0.00 in
19:07 34.7 °F 33.9 °F 30.03 in WNW 5.0 mph 13.0 mph 97% 0.00 in
19:12 34.7 °F 33.9 °F 30.04 in WNW 12.0 mph 12.0 mph 97% 0.00 in
19:17 34.7 °F 33.7 °F 30.04 in WNW 4.0 mph 10.0 mph 96% 0.00 in
19:22 34.7 °F 33.9 °F 30.05 in WNW 6.0 mph 8.0 mph 97% 0.00 in
19:27 34.7 °F 33.9 °F 30.05 in WNW 6.0 mph 8.0 mph 97% 0.00 in
19:32 34.7 °F 33.9 °F 30.05 in NW 4.0 mph 6.0 mph 97% 0.00 in
19:37 34.7 °F 33.9 °F 30.05 in WNW 6.0 mph 7.0 mph 97% 0.00 in
19:42 34.7 °F 33.9 °F 30.05 in WNW 5.0 mph 9.0 mph 97% 0.00 in
19:47 34.7 °F 33.9 °F 30.05 in West 8.0 mph 9.0 mph 97% 0.00 in
19:52 34.7 °F 33.9 °F 30.06 in West 4.0 mph 9.0 mph 97% 0.00 in
19:57 34.7 °F 33.9 °F 30.06 in WNW 3.0 mph 7.0 mph 97% 0.00 in
20:02 34.8 °F 34.0 °F 30.06 in WNW 4.0 mph 9.0 mph 97% 0.00 in
20:07 34.8 °F 34.0 °F 30.06 in West 4.0 mph 10.0 mph 97% 0.00 in
20:12 34.8 °F 34.0 °F 30.06 in WSW 6.0 mph 6.0 mph 97% 0.00 in
20:17 34.8 °F 34.0 °F 30.07 in WNW 6.0 mph 10.0 mph 97% 0.00 in
20:22 34.9 °F 34.1 °F 30.07 in West 5.0 mph 9.0 mph 97% 0.00 in
20:27 34.9 °F 34.1 °F 30.07 in WNW 3.0 mph 7.0 mph 97% 0.00 in
20:32 34.9 °F 34.1 °F 30.07 in WNW 5.0 mph 8.0 mph 97% 0.00 in
20:37 34.9 °F 34.1 °F 30.07 in WNW 4.0 mph 8.0 mph 97% 0.00 in
20:42 34.9 °F 34.1 °F 30.07 in West 5.0 mph 5.0 mph 97% 0.00 in
20:47 35.0 °F 34.2 °F 30.07 in West 2.0 mph 4.0 mph 97% 0.00 in
20:52 35.0 °F 34.2 °F 30.07 in WNW 5.0 mph 8.0 mph 97% 0.00 in
20:57 35.1 °F 34.3 °F 30.08 in WNW 3.0 mph 5.0 mph 97% 0.00 in
21:02 35.1 °F 34.3 °F 30.08 in WNW 3.0 mph 6.0 mph 97% 0.00 in
21:07 35.1 °F 34.3 °F 30.08 in WNW 2.0 mph 5.0 mph 97% 0.00 in
21:12 35.2 °F 34.4 °F 30.08 in West 4.0 mph 6.0 mph 97% 0.00 in
21:17 35.2 °F 34.4 °F 30.08 in West 1.0 mph 6.0 mph 97% 0.00 in
21:22 35.3 °F 34.5 °F 30.08 in WNW 5.0 mph 7.0 mph 97% 0.00 in
21:27 35.3 °F 34.5 °F 30.08 in WNW 6.0 mph 8.0 mph 97% 0.00 in
21:32 35.3 °F 34.5 °F 30.08 in WNW 5.0 mph 7.0 mph 97% 0.00 in
21:37 35.3 °F 34.5 °F 30.08 in WNW 4.0 mph 9.0 mph 97% 0.00 in
21:42 35.4 °F 34.6 °F 30.08 in West 6.0 mph 9.0 mph 97% 0.00 in
21:47 35.4 °F 34.6 °F 30.08 in WNW 3.0 mph 7.0 mph 97% 0.00 in
21:52 35.4 °F 34.6 °F 30.08 in West 2.0 mph 4.0 mph 97% 0.00 in
21:57 35.4 °F 34.6 °F 30.08 in West 7.0 mph 8.0 mph 97% 0.00 in
22:02 35.4 °F 34.6 °F 30.08 in West 3.0 mph 6.0 mph 97% 0.00 in
22:07 35.4 °F 34.6 °F 30.08 in West 7.0 mph 12.0 mph 97% 0.00 in
22:12 35.5 °F 34.7 °F 30.08 in WNW 4.0 mph 9.0 mph 97% 0.00 in
22:17 35.5 °F 34.7 °F 30.09 in West 3.0 mph 6.0 mph 97% 0.00 in
22:22 35.5 °F 34.7 °F 30.09 in WNW 6.0 mph 6.0 mph 97% 0.00 in
22:27 35.5 °F 34.7 °F 30.09 in West 6.0 mph 8.0 mph 97% 0.00 in
22:32 35.6 °F 34.8 °F 30.09 in WNW 4.0 mph 8.0 mph 97% 0.00 in
22:37 35.6 °F 34.8 °F 30.09 in WNW 4.0 mph 7.0 mph 97% 0.00 in
22:43 35.7 °F 34.9 °F 30.09 in West 3.0 mph 8.0 mph 97% 0.00 in
22:48 35.7 °F 34.9 °F 30.09 in WNW 4.0 mph 6.0 mph 97% 0.00 in
22:53 35.7 °F 34.9 °F 30.09 in West 4.0 mph 8.0 mph 97% 0.00 in
22:57 35.7 °F 34.9 °F 30.09 in WNW 6.0 mph 6.0 mph 97% 0.00 in
23:02 35.7 °F 34.9 °F 30.09 in West 6.0 mph 6.0 mph 97% 0.00 in
23:08 35.7 °F 34.9 °F 30.09 in WNW 4.0 mph 6.0 mph 97% 0.00 in
23:12 35.8 °F 35.0 °F 30.09 in WSW 6.0 mph 8.0 mph 97% 0.00 in
23:17 35.8 °F 35.0 °F 30.09 in West 6.0 mph 6.0 mph 97% 0.00 in
23:23 35.8 °F 35.0 °F 30.10 in WNW 4.0 mph 7.0 mph 97% 0.00 in
23:28 35.8 °F 35.0 °F 30.10 in West 5.0 mph 6.0 mph 97% 0.00 in
23:33 35.8 °F 35.0 °F 30.10 in West 4.0 mph 6.0 mph 97% 0.00 in
23:38 35.8 °F 35.0 °F 30.10 in WNW 3.0 mph 5.0 mph 97% 0.00 in
23:43 35.8 °F 35.0 °F 30.10 in NW 2.0 mph 4.0 mph 97% 0.00 in
23:48 35.8 °F 35.0 °F 30.10 in West 5.0 mph 7.0 mph 97% 0.00 in
23:53 35.8 °F 35.0 °F 30.09 in West 5.0 mph 8.0 mph 97% 0.00 in
23:58 35.8 °F 35.0 °F 30.09 in WNW 4.0 mph 7.0 mph 97% 0.00 in
Compliments of Weather Underground